sensor_id;sensor_type;location;lat;lon;timestamp;P1;durP1;ratioP1;P2;durP2;ratioP2
26319;SDS011;14024;52.226;5.200;2023-05-14T00:01:50;37.50;;;18.10;;
26319;SDS011;14024;52.226;5.200;2023-05-14T00:04:16;37.58;;;16.95;;
26319;SDS011;14024;52.226;5.200;2023-05-14T00:06:43;29.85;;;17.50;;
26319;SDS011;14024;52.226;5.200;2023-05-14T00:09:10;30.15;;;18.52;;
26319;SDS011;14024;52.226;5.200;2023-05-14T00:11:36;29.67;;;16.67;;
26319;SDS011;14024;52.226;5.200;2023-05-14T00:14:02;29.95;;;17.80;;
26319;SDS011;14024;52.226;5.200;2023-05-14T00:16:28;33.38;;;17.42;;
26319;SDS011;14024;52.226;5.200;2023-05-14T00:18:54;27.83;;;16.20;;
26319;SDS011;14024;52.226;5.200;2023-05-14T00:21:20;33.70;;;18.02;;
26319;SDS011;14024;52.226;5.200;2023-05-14T00:23:46;30.55;;;17.88;;
26319;SDS011;14024;52.226;5.200;2023-05-14T00:26:12;32.65;;;17.17;;
26319;SDS011;14024;52.226;5.200;2023-05-14T00:28:38;30.45;;;17.20;;
26319;SDS011;14024;52.226;5.200;2023-05-14T00:31:04;30.30;;;15.80;;
26319;SDS011;14024;52.226;5.200;2023-05-14T00:33:30;33.15;;;16.45;;
26319;SDS011;14024;52.226;5.200;2023-05-14T00:35:57;34.45;;;17.77;;
26319;SDS011;14024;52.226;5.200;2023-05-14T00:38:23;34.97;;;18.00;;
26319;SDS011;14024;52.226;5.200;2023-05-14T00:40:51;34.72;;;16.75;;
26319;SDS011;14024;52.226;5.200;2023-05-14T00:43:20;32.08;;;16.27;;
26319;SDS011;14024;52.226;5.200;2023-05-14T00:45:49;32.63;;;17.25;;
26319;SDS011;14024;52.226;5.200;2023-05-14T00:48:16;31.55;;;16.60;;
26319;SDS011;14024;52.226;5.200;2023-05-14T00:50:42;28.65;;;16.58;;
26319;SDS011;14024;52.226;5.200;2023-05-14T00:53:09;31.13;;;15.98;;
26319;SDS011;14024;52.226;5.200;2023-05-14T00:55:39;34.78;;;18.25;;
26319;SDS011;14024;52.226;5.200;2023-05-14T00:58:09;32.60;;;16.20;;
26319;SDS011;14024;52.226;5.200;2023-05-14T01:00:35;31.25;;;17.08;;
26319;SDS011;14024;52.226;5.200;2023-05-14T01:03:05;31.10;;;16.67;;
26319;SDS011;14024;52.226;5.200;2023-05-14T01:06:18;33.65;;;17.42;;
26319;SDS011;14024;52.226;5.200;2023-05-14T01:11:04;27.70;;;16.17;;
26319;SDS011;14024;52.226;5.200;2023-05-14T01:15:57;32.75;;;16.98;;
26319;SDS011;14024;52.226;5.200;2023-05-14T01:18:24;31.52;;;16.63;;
26319;SDS011;14024;52.226;5.200;2023-05-14T01:20:52;32.88;;;17.00;;
26319;SDS011;14024;52.226;5.200;2023-05-14T01:23:19;30.85;;;16.65;;
26319;SDS011;14024;52.226;5.200;2023-05-14T01:25:46;34.28;;;16.33;;
26319;SDS011;14024;52.226;5.200;2023-05-14T01:28:16;46.58;;;17.80;;
26319;SDS011;14024;52.226;5.200;2023-05-14T01:31:17;41.28;;;17.38;;
26319;SDS011;14024;52.226;5.200;2023-05-14T01:33:35;37.15;;;18.42;;
26319;SDS011;14024;52.226;5.200;2023-05-14T01:36:01;32.05;;;17.08;;
26319;SDS011;14024;52.226;5.200;2023-05-14T01:38:28;38.53;;;17.48;;
26319;SDS011;14024;52.226;5.200;2023-05-14T01:40:57;30.80;;;16.65;;
26319;SDS011;14024;52.226;5.200;2023-05-14T01:43:24;32.58;;;17.75;;
26319;SDS011;14024;52.226;5.200;2023-05-14T01:45:50;34.97;;;16.35;;
26319;SDS011;14024;52.226;5.200;2023-05-14T01:48:19;32.42;;;16.10;;
26319;SDS011;14024;52.226;5.200;2023-05-14T01:50:45;33.88;;;16.95;;
26319;SDS011;14024;52.226;5.200;2023-05-14T01:53:11;30.67;;;16.23;;
26319;SDS011;14024;52.226;5.200;2023-05-14T01:55:37;35.63;;;16.98;;
26319;SDS011;14024;52.226;5.200;2023-05-14T01:58:03;28.13;;;15.80;;
26319;SDS011;14024;52.226;5.200;2023-05-14T02:00:29;31.80;;;16.67;;
26319;SDS011;14024;52.226;5.200;2023-05-14T02:02:56;32.50;;;16.73;;
26319;SDS011;14024;52.226;5.200;2023-05-14T02:05:22;30.05;;;16.80;;
26319;SDS011;14024;52.226;5.200;2023-05-14T02:07:48;33.55;;;16.95;;
26319;SDS011;14024;52.226;5.200;2023-05-14T02:10:14;34.40;;;16.50;;
26319;SDS011;14024;52.226;5.200;2023-05-14T02:12:40;33.65;;;16.40;;
26319;SDS011;14024;52.226;5.200;2023-05-14T02:15:06;34.20;;;17.27;;
26319;SDS011;14024;52.226;5.200;2023-05-14T02:17:34;29.85;;;16.63;;
26319;SDS011;14024;52.226;5.200;2023-05-14T02:20:00;27.23;;;15.52;;
26319;SDS011;14024;52.226;5.200;2023-05-14T02:22:26;33.42;;;17.10;;
26319;SDS011;14024;52.226;5.200;2023-05-14T02:24:52;34.13;;;17.27;;
26319;SDS011;14024;52.226;5.200;2023-05-14T02:27:18;34.70;;;17.00;;
26319;SDS011;14024;52.226;5.200;2023-05-14T02:29:45;36.90;;;17.80;;
26319;SDS011;14024;52.226;5.200;2023-05-14T02:32:11;32.00;;;17.30;;
26319;SDS011;14024;52.226;5.200;2023-05-14T02:34:37;33.65;;;16.67;;
26319;SDS011;14024;52.226;5.200;2023-05-14T02:37:03;29.23;;;16.58;;
26319;SDS011;14024;52.226;5.200;2023-05-14T02:39:29;30.67;;;16.27;;
26319;SDS011;14024;52.226;5.200;2023-05-14T02:41:55;33.60;;;17.25;;
26319;SDS011;14024;52.226;5.200;2023-05-14T02:44:21;31.42;;;17.20;;
26319;SDS011;14024;52.226;5.200;2023-05-14T02:46:47;35.88;;;16.48;;
26319;SDS011;14024;52.226;5.200;2023-05-14T02:49:13;33.53;;;17.00;;
26319;SDS011;14024;52.226;5.200;2023-05-14T02:51:39;32.10;;;17.40;;
26319;SDS011;14024;52.226;5.200;2023-05-14T02:54:05;29.30;;;16.27;;
26319;SDS011;14024;52.226;5.200;2023-05-14T02:56:31;30.52;;;16.38;;
26319;SDS011;14024;52.226;5.200;2023-05-14T02:58:57;34.13;;;16.92;;
26319;SDS011;14024;52.226;5.200;2023-05-14T03:01:23;33.10;;;17.55;;
26319;SDS011;14024;52.226;5.200;2023-05-14T03:03:49;33.85;;;16.90;;
26319;SDS011;14024;52.226;5.200;2023-05-14T03:06:15;34.08;;;17.23;;
26319;SDS011;14024;52.226;5.200;2023-05-14T03:08:41;37.72;;;17.33;;
26319;SDS011;14024;52.226;5.200;2023-05-14T03:11:07;30.75;;;16.90;;
26319;SDS011;14024;52.226;5.200;2023-05-14T03:13:33;31.27;;;18.25;;
26319;SDS011;14024;52.226;5.200;2023-05-14T03:15:59;31.27;;;17.33;;
26319;SDS011;14024;52.226;5.200;2023-05-14T03:18:25;35.55;;;17.63;;
26319;SDS011;14024;52.226;5.200;2023-05-14T03:20:54;33.15;;;16.25;;
26319;SDS011;14024;52.226;5.200;2023-05-14T03:23:20;34.60;;;17.13;;
26319;SDS011;14024;52.226;5.200;2023-05-14T03:25:46;34.95;;;16.95;;
26319;SDS011;14024;52.226;5.200;2023-05-14T03:28:12;28.02;;;16.27;;
26319;SDS011;14024;52.226;5.200;2023-05-14T03:30:38;32.95;;;16.15;;
26319;SDS011;14024;52.226;5.200;2023-05-14T03:33:04;39.17;;;18.90;;
26319;SDS011;14024;52.226;5.200;2023-05-14T03:35:30;28.95;;;16.75;;
26319;SDS011;14024;52.226;5.200;2023-05-14T03:37:56;40.47;;;19.25;;
26319;SDS011;14024;52.226;5.200;2023-05-14T03:40:23;42.30;;;17.88;;
26319;SDS011;14024;52.226;5.200;2023-05-14T03:42:49;29.92;;;16.73;;
26319;SDS011;14024;52.226;5.200;2023-05-14T03:45:15;31.52;;;16.45;;
26319;SDS011;14024;52.226;5.200;2023-05-14T03:47:41;30.23;;;16.92;;
26319;SDS011;14024;52.226;5.200;2023-05-14T03:50:07;34.53;;;16.85;;
26319;SDS011;14024;52.226;5.200;2023-05-14T03:52:35;30.58;;;15.68;;
26319;SDS011;14024;52.226;5.200;2023-05-14T03:55:01;27.40;;;15.75;;
26319;SDS011;14024;52.226;5.200;2023-05-14T03:57:27;27.40;;;15.98;;
26319;SDS011;14024;52.226;5.200;2023-05-14T03:59:53;32.08;;;16.15;;
26319;SDS011;14024;52.226;5.200;2023-05-14T04:02:19;29.80;;;16.33;;
26319;SDS011;14024;52.226;5.200;2023-05-14T04:04:45;34.05;;;16.40;;
26319;SDS011;14024;52.226;5.200;2023-05-14T04:07:11;32.97;;;16.73;;
26319;SDS011;14024;52.226;5.200;2023-05-14T04:09:37;32.05;;;16.88;;
26319;SDS011;14024;52.226;5.200;2023-05-14T04:12:03;32.50;;;16.63;;
26319;SDS011;14024;52.226;5.200;2023-05-14T04:14:29;30.30;;;16.60;;
26319;SDS011;14024;52.226;5.200;2023-05-14T04:16:55;30.25;;;16.25;;
26319;SDS011;14024;52.226;5.200;2023-05-14T04:19:21;26.92;;;15.00;;
26319;SDS011;14024;52.226;5.200;2023-05-14T04:21:47;33.60;;;16.85;;
26319;SDS011;14024;52.226;5.200;2023-05-14T04:24:13;32.63;;;15.63;;
26319;SDS011;14024;52.226;5.200;2023-05-14T04:26:39;30.98;;;16.45;;
26319;SDS011;14024;52.226;5.200;2023-05-14T04:29:05;29.13;;;16.33;;
26319;SDS011;14024;52.226;5.200;2023-05-14T04:31:31;26.67;;;16.38;;
26319;SDS011;14024;52.226;5.200;2023-05-14T04:33:57;27.38;;;16.05;;
26319;SDS011;14024;52.226;5.200;2023-05-14T04:36:24;29.83;;;15.80;;
26319;SDS011;14024;52.226;5.200;2023-05-14T04:38:50;31.95;;;15.90;;
26319;SDS011;14024;52.226;5.200;2023-05-14T04:41:16;28.83;;;15.80;;
26319;SDS011;14024;52.226;5.200;2023-05-14T04:43:42;32.05;;;15.35;;
26319;SDS011;14024;52.226;5.200;2023-05-14T04:46:08;31.60;;;15.90;;
26319;SDS011;14024;52.226;5.200;2023-05-14T04:48:34;33.28;;;16.48;;
26319;SDS011;14024;52.226;5.200;2023-05-14T04:51:00;28.70;;;15.32;;
26319;SDS011;14024;52.226;5.200;2023-05-14T04:53:26;27.23;;;15.55;;
26319;SDS011;14024;52.226;5.200;2023-05-14T04:55:52;31.67;;;15.75;;
26319;SDS011;14024;52.226;5.200;2023-05-14T04:58:18;28.42;;;14.82;;
26319;SDS011;14024;52.226;5.200;2023-05-14T05:00:44;28.50;;;15.60;;
26319;SDS011;14024;52.226;5.200;2023-05-14T05:03:10;27.65;;;15.05;;
26319;SDS011;14024;52.226;5.200;2023-05-14T05:05:36;32.33;;;15.27;;
26319;SDS011;14024;52.226;5.200;2023-05-14T05:08:02;25.17;;;15.20;;
26319;SDS011;14024;52.226;5.200;2023-05-14T05:10:30;31.40;;;15.90;;
26319;SDS011;14024;52.226;5.200;2023-05-14T05:12:56;35.58;;;15.98;;
26319;SDS011;14024;52.226;5.200;2023-05-14T05:15:22;32.35;;;16.27;;
26319;SDS011;14024;52.226;5.200;2023-05-14T05:17:49;33.67;;;17.15;;
26319;SDS011;14024;52.226;5.200;2023-05-14T05:20:15;33.90;;;16.08;;
26319;SDS011;14024;52.226;5.200;2023-05-14T05:22:41;30.50;;;16.65;;
26319;SDS011;14024;52.226;5.200;2023-05-14T05:25:07;35.92;;;18.25;;
26319;SDS011;14024;52.226;5.200;2023-05-14T05:27:34;34.33;;;17.40;;
26319;SDS011;14024;52.226;5.200;2023-05-14T05:30:00;30.50;;;17.33;;
26319;SDS011;14024;52.226;5.200;2023-05-14T05:32:28;35.72;;;16.75;;
26319;SDS011;14024;52.226;5.200;2023-05-14T05:34:55;32.92;;;17.13;;
26319;SDS011;14024;52.226;5.200;2023-05-14T05:37:21;35.05;;;17.25;;
26319;SDS011;14024;52.226;5.200;2023-05-14T05:39:47;36.20;;;18.17;;
26319;SDS011;14024;52.226;5.200;2023-05-14T05:42:13;28.90;;;17.90;;
26319;SDS011;14024;52.226;5.200;2023-05-14T05:44:39;33.22;;;17.33;;
26319;SDS011;14024;52.226;5.200;2023-05-14T05:47:05;30.75;;;16.52;;
26319;SDS011;14024;52.226;5.200;2023-05-14T05:49:31;32.45;;;17.60;;
26319;SDS011;14024;52.226;5.200;2023-05-14T05:51:57;29.20;;;17.00;;
26319;SDS011;14024;52.226;5.200;2023-05-14T05:54:23;30.10;;;16.65;;
26319;SDS011;14024;52.226;5.200;2023-05-14T05:56:50;29.67;;;16.27;;
26319;SDS011;14024;52.226;5.200;2023-05-14T05:59:16;31.80;;;17.65;;
26319;SDS011;14024;52.226;5.200;2023-05-14T06:01:42;35.65;;;17.30;;
26319;SDS011;14024;52.226;5.200;2023-05-14T06:04:09;38.05;;;17.98;;
26319;SDS011;14024;52.226;5.200;2023-05-14T06:06:35;28.20;;;16.00;;
26319;SDS011;14024;52.226;5.200;2023-05-14T06:09:01;38.28;;;17.30;;
26319;SDS011;14024;52.226;5.200;2023-05-14T06:11:27;34.53;;;17.23;;
26319;SDS011;14024;52.226;5.200;2023-05-14T06:13:53;29.23;;;17.85;;
26319;SDS011;14024;52.226;5.200;2023-05-14T06:16:19;37.50;;;17.52;;
26319;SDS011;14024;52.226;5.200;2023-05-14T06:18:45;31.30;;;18.27;;
26319;SDS011;14024;52.226;5.200;2023-05-14T06:21:11;35.05;;;18.15;;
26319;SDS011;14024;52.226;5.200;2023-05-14T06:23:37;32.88;;;17.75;;
26319;SDS011;14024;52.226;5.200;2023-05-14T06:26:03;37.28;;;18.00;;
26319;SDS011;14024;52.226;5.200;2023-05-14T06:28:29;34.20;;;17.75;;
26319;SDS011;14024;52.226;5.200;2023-05-14T06:30:55;29.80;;;16.92;;
26319;SDS011;14024;52.226;5.200;2023-05-14T06:33:21;29.95;;;17.13;;
26319;SDS011;14024;52.226;5.200;2023-05-14T06:35:54;29.05;;;18.20;;
26319;SDS011;14024;52.226;5.200;2023-05-14T06:38:20;34.63;;;16.77;;
26319;SDS011;14024;52.226;5.200;2023-05-14T06:40:46;33.22;;;17.05;;
26319;SDS011;14024;52.226;5.200;2023-05-14T06:43:12;30.80;;;17.42;;
26319;SDS011;14024;52.226;5.200;2023-05-14T06:45:38;25.92;;;16.50;;
26319;SDS011;14024;52.226;5.200;2023-05-14T06:48:04;34.60;;;16.40;;
26319;SDS011;14024;52.226;5.200;2023-05-14T06:50:30;28.55;;;15.50;;
26319;SDS011;14024;52.226;5.200;2023-05-14T06:52:56;23.33;;;15.40;;
26319;SDS011;14024;52.226;5.200;2023-05-14T06:55:22;27.30;;;16.08;;
26319;SDS011;14024;52.226;5.200;2023-05-14T06:57:51;26.92;;;16.20;;
26319;SDS011;14024;52.226;5.200;2023-05-14T07:00:17;23.92;;;15.70;;
26319;SDS011;14024;52.226;5.200;2023-05-14T07:02:44;29.35;;;16.02;;
26319;SDS011;14024;52.226;5.200;2023-05-14T07:05:10;28.73;;;15.40;;
26319;SDS011;14024;52.226;5.200;2023-05-14T07:07:36;27.33;;;14.63;;
26319;SDS011;14024;52.226;5.200;2023-05-14T07:10:02;28.08;;;14.75;;
26319;SDS011;14024;52.226;5.200;2023-05-14T07:12:28;25.98;;;14.48;;
26319;SDS011;14024;52.226;5.200;2023-05-14T07:14:54;27.55;;;14.43;;
26319;SDS011;14024;52.226;5.200;2023-05-14T07:17:21;26.33;;;14.82;;
26319;SDS011;14024;52.226;5.200;2023-05-14T07:19:47;29.42;;;14.82;;
26319;SDS011;14024;52.226;5.200;2023-05-14T07:22:13;24.75;;;14.20;;
26319;SDS011;14024;52.226;5.200;2023-05-14T07:24:39;21.98;;;13.45;;
26319;SDS011;14024;52.226;5.200;2023-05-14T07:27:07;29.05;;;13.57;;
26319;SDS011;14024;52.226;5.200;2023-05-14T07:29:34;26.50;;;13.02;;
26319;SDS011;14024;52.226;5.200;2023-05-14T07:32:00;26.13;;;13.25;;
26319;SDS011;14024;52.226;5.200;2023-05-14T07:34:26;23.88;;;12.95;;
26319;SDS011;14024;52.226;5.200;2023-05-14T07:36:52;26.08;;;12.95;;
26319;SDS011;14024;52.226;5.200;2023-05-14T07:39:18;28.70;;;12.30;;
26319;SDS011;14024;52.226;5.200;2023-05-14T07:41:48;24.35;;;12.35;;
26319;SDS011;14024;52.226;5.200;2023-05-14T07:44:14;22.77;;;12.20;;
26319;SDS011;14024;52.226;5.200;2023-05-14T07:46:41;25.63;;;11.07;;
26319;SDS011;14024;52.226;5.200;2023-05-14T07:49:07;23.05;;;10.80;;
26319;SDS011;14024;52.226;5.200;2023-05-14T07:51:34;20.88;;;9.88;;
26319;SDS011;14024;52.226;5.200;2023-05-14T07:54:00;22.02;;;10.05;;
26319;SDS011;14024;52.226;5.200;2023-05-14T07:56:26;22.10;;;10.52;;
26319;SDS011;14024;52.226;5.200;2023-05-14T07:58:52;23.45;;;10.35;;
26319;SDS011;14024;52.226;5.200;2023-05-14T08:01:18;20.98;;;10.38;;
26319;SDS011;14024;52.226;5.200;2023-05-14T08:03:44;20.58;;;9.55;;
26319;SDS011;14024;52.226;5.200;2023-05-14T08:06:13;23.58;;;10.80;;
26319;SDS011;14024;52.226;5.200;2023-05-14T08:08:39;33.85;;;13.23;;
26319;SDS011;14024;52.226;5.200;2023-05-14T08:11:05;22.83;;;11.20;;
26319;SDS011;14024;52.226;5.200;2023-05-14T08:13:31;22.02;;;10.93;;
26319;SDS011;14024;52.226;5.200;2023-05-14T08:15:57;26.33;;;10.70;;
26319;SDS011;14024;52.226;5.200;2023-05-14T08:18:23;20.25;;;11.23;;
26319;SDS011;14024;52.226;5.200;2023-05-14T08:20:53;24.92;;;11.75;;
26319;SDS011;14024;52.226;5.200;2023-05-14T08:23:22;18.13;;;9.90;;
26319;SDS011;14024;52.226;5.200;2023-05-14T08:25:48;17.83;;;9.70;;
26319;SDS011;14024;52.226;5.200;2023-05-14T08:28:15;19.42;;;9.90;;
26319;SDS011;14024;52.226;5.200;2023-05-14T08:30:41;21.58;;;9.77;;
26319;SDS011;14024;52.226;5.200;2023-05-14T08:33:09;17.85;;;10.07;;
26319;SDS011;14024;52.226;5.200;2023-05-14T08:35:35;19.90;;;9.50;;
26319;SDS011;14024;52.226;5.200;2023-05-14T08:38:01;24.55;;;10.40;;
26319;SDS011;14024;52.226;5.200;2023-05-14T08:40:28;16.55;;;9.48;;
26319;SDS011;14024;52.226;5.200;2023-05-14T08:42:55;19.90;;;9.63;;
26319;SDS011;14024;52.226;5.200;2023-05-14T08:45:23;18.95;;;9.05;;
26319;SDS011;14024;52.226;5.200;2023-05-14T08:47:52;22.10;;;10.18;;
26319;SDS011;14024;52.226;5.200;2023-05-14T08:50:20;19.17;;;8.95;;
26319;SDS011;14024;52.226;5.200;2023-05-14T08:52:46;16.73;;;9.80;;
26319;SDS011;14024;52.226;5.200;2023-05-14T08:55:13;23.08;;;9.90;;
26319;SDS011;14024;52.226;5.200;2023-05-14T08:57:39;17.08;;;9.07;;
26319;SDS011;14024;52.226;5.200;2023-05-14T09:00:05;17.52;;;9.85;;
26319;SDS011;14024;52.226;5.200;2023-05-14T09:02:39;24.42;;;9.45;;
26319;SDS011;14024;52.226;5.200;2023-05-14T09:05:06;17.40;;;10.32;;
26319;SDS011;14024;52.226;5.200;2023-05-14T09:07:33;23.48;;;11.25;;
26319;SDS011;14024;52.226;5.200;2023-05-14T09:09:59;18.25;;;9.55;;
26319;SDS011;14024;52.226;5.200;2023-05-14T09:12:26;20.65;;;10.50;;
26319;SDS011;14024;52.226;5.200;2023-05-14T09:14:52;14.55;;;9.13;;
26319;SDS011;14024;52.226;5.200;2023-05-14T09:17:18;17.08;;;9.25;;
26319;SDS011;14024;52.226;5.200;2023-05-14T09:19:45;18.58;;;9.13;;
26319;SDS011;14024;52.226;5.200;2023-05-14T09:22:14;18.55;;;9.27;;
26319;SDS011;14024;52.226;5.200;2023-05-14T09:24:41;22.50;;;9.55;;
26319;SDS011;14024;52.226;5.200;2023-05-14T09:27:08;17.10;;;9.15;;
26319;SDS011;14024;52.226;5.200;2023-05-14T09:29:35;20.67;;;9.13;;
26319;SDS011;14024;52.226;5.200;2023-05-14T09:32:01;20.92;;;9.32;;
26319;SDS011;14024;52.226;5.200;2023-05-14T09:34:30;15.30;;;8.90;;
26319;SDS011;14024;52.226;5.200;2023-05-14T09:36:57;20.33;;;9.85;;
26319;SDS011;14024;52.226;5.200;2023-05-14T09:39:23;18.67;;;9.48;;
26319;SDS011;14024;52.226;5.200;2023-05-14T09:41:49;18.15;;;9.00;;
26319;SDS011;14024;52.226;5.200;2023-05-14T09:44:16;21.25;;;9.27;;
26319;SDS011;14024;52.226;5.200;2023-05-14T09:46:42;17.58;;;9.77;;
26319;SDS011;14024;52.226;5.200;2023-05-14T09:49:08;14.98;;;8.95;;
26319;SDS011;14024;52.226;5.200;2023-05-14T09:51:35;19.08;;;8.63;;
26319;SDS011;14024;52.226;5.200;2023-05-14T09:54:01;18.17;;;9.40;;
26319;SDS011;14024;52.226;5.200;2023-05-14T09:56:28;16.27;;;8.57;;
26319;SDS011;14024;52.226;5.200;2023-05-14T09:58:54;17.70;;;8.10;;
26319;SDS011;14024;52.226;5.200;2023-05-14T10:01:20;18.15;;;8.52;;
26319;SDS011;14024;52.226;5.200;2023-05-14T10:03:47;25.77;;;8.52;;
26319;SDS011;14024;52.226;5.200;2023-05-14T10:06:15;20.88;;;8.32;;
26319;SDS011;14024;52.226;5.200;2023-05-14T10:08:42;15.70;;;8.05;;
26319;SDS011;14024;52.226;5.200;2023-05-14T10:11:12;24.60;;;9.60;;
26319;SDS011;14024;52.226;5.200;2023-05-14T10:13:40;19.98;;;8.65;;
26319;SDS011;14024;52.226;5.200;2023-05-14T10:16:18;23.92;;;8.40;;
26319;SDS011;14024;52.226;5.200;2023-05-14T10:18:49;20.83;;;8.75;;
26319;SDS011;14024;52.226;5.200;2023-05-14T10:21:19;16.85;;;8.70;;
26319;SDS011;14024;52.226;5.200;2023-05-14T10:23:48;14.60;;;8.65;;
26319;SDS011;14024;52.226;5.200;2023-05-14T10:26:15;15.98;;;8.85;;
26319;SDS011;14024;52.226;5.200;2023-05-14T10:28:41;14.27;;;8.07;;
26319;SDS011;14024;52.226;5.200;2023-05-14T10:31:10;19.27;;;8.02;;
26319;SDS011;14024;52.226;5.200;2023-05-14T10:33:46;16.38;;;8.45;;
26319;SDS011;14024;52.226;5.200;2023-05-14T10:36:14;16.73;;;7.90;;
26319;SDS011;14024;52.226;5.200;2023-05-14T10:38:40;13.32;;;7.65;;
26319;SDS011;14024;52.226;5.200;2023-05-14T10:41:10;18.13;;;8.20;;
26319;SDS011;14024;52.226;5.200;2023-05-14T10:43:37;13.75;;;7.63;;
26319;SDS011;14024;52.226;5.200;2023-05-14T10:46:03;17.17;;;8.45;;
26319;SDS011;14024;52.226;5.200;2023-05-14T10:48:29;15.20;;;8.38;;
26319;SDS011;14024;52.226;5.200;2023-05-14T10:50:55;15.90;;;7.38;;
26319;SDS011;14024;52.226;5.200;2023-05-14T10:53:32;16.00;;;8.55;;
26319;SDS011;14024;52.226;5.200;2023-05-14T10:56:05;16.95;;;7.47;;
26319;SDS011;14024;52.226;5.200;2023-05-14T10:58:34;15.85;;;7.65;;
26319;SDS011;14024;52.226;5.200;2023-05-14T11:01:01;12.07;;;7.97;;
26319;SDS011;14024;52.226;5.200;2023-05-14T11:03:30;17.23;;;8.38;;
26319;SDS011;14024;52.226;5.200;2023-05-14T11:05:56;18.98;;;8.40;;
26319;SDS011;14024;52.226;5.200;2023-05-14T11:08:22;18.20;;;8.10;;
26319;SDS011;14024;52.226;5.200;2023-05-14T11:10:51;21.98;;;8.45;;
26319;SDS011;14024;52.226;5.200;2023-05-14T11:13:19;16.77;;;8.82;;
26319;SDS011;14024;52.226;5.200;2023-05-14T11:15:45;19.27;;;8.15;;
26319;SDS011;14024;52.226;5.200;2023-05-14T11:18:12;20.83;;;9.48;;
26319;SDS011;14024;52.226;5.200;2023-05-14T11:20:38;17.98;;;8.50;;
26319;SDS011;14024;52.226;5.200;2023-05-14T11:23:04;13.70;;;8.30;;
26319;SDS011;14024;52.226;5.200;2023-05-14T11:25:30;22.67;;;9.32;;
26319;SDS011;14024;52.226;5.200;2023-05-14T11:27:56;16.83;;;8.30;;
26319;SDS011;14024;52.226;5.200;2023-05-14T11:30:24;18.42;;;9.07;;
26319;SDS011;14024;52.226;5.200;2023-05-14T11:32:50;16.33;;;8.05;;
26319;SDS011;14024;52.226;5.200;2023-05-14T11:35:18;17.08;;;8.20;;
26319;SDS011;14024;52.226;5.200;2023-05-14T11:37:50;18.63;;;8.80;;
26319;SDS011;14024;52.226;5.200;2023-05-14T11:40:16;19.73;;;10.32;;
26319;SDS011;14024;52.226;5.200;2023-05-14T11:42:43;23.33;;;7.88;;
26319;SDS011;14024;52.226;5.200;2023-05-14T11:45:09;16.17;;;8.98;;
26319;SDS011;14024;52.226;5.200;2023-05-14T11:47:36;18.90;;;8.73;;
26319;SDS011;14024;52.226;5.200;2023-05-14T11:50:02;20.35;;;8.38;;
26319;SDS011;14024;52.226;5.200;2023-05-14T11:52:29;16.77;;;8.88;;
26319;SDS011;14024;52.226;5.200;2023-05-14T11:54:55;16.40;;;8.45;;
26319;SDS011;14024;52.226;5.200;2023-05-14T11:57:21;17.60;;;9.32;;
26319;SDS011;14024;52.226;5.200;2023-05-14T11:59:47;16.05;;;8.20;;
26319;SDS011;14024;52.226;5.200;2023-05-14T12:02:15;15.85;;;7.13;;
26319;SDS011;14024;52.226;5.200;2023-05-14T12:04:42;18.55;;;9.30;;
26319;SDS011;14024;52.226;5.200;2023-05-14T12:07:09;13.32;;;8.02;;
26319;SDS011;14024;52.226;5.200;2023-05-14T12:09:37;20.33;;;8.07;;
26319;SDS011;14024;52.226;5.200;2023-05-14T12:12:07;14.73;;;8.13;;
26319;SDS011;14024;52.226;5.200;2023-05-14T12:14:35;21.33;;;7.75;;
26319;SDS011;14024;52.226;5.200;2023-05-14T12:17:02;22.90;;;8.75;;
26319;SDS011;14024;52.226;5.200;2023-05-14T12:19:28;18.05;;;8.15;;
26319;SDS011;14024;52.226;5.200;2023-05-14T12:21:54;15.10;;;8.63;;
26319;SDS011;14024;52.226;5.200;2023-05-14T12:24:21;19.35;;;8.13;;
26319;SDS011;14024;52.226;5.200;2023-05-14T12:26:47;17.20;;;9.32;;
26319;SDS011;14024;52.226;5.200;2023-05-14T12:29:15;11.85;;;7.93;;
26319;SDS011;14024;52.226;5.200;2023-05-14T12:31:45;12.38;;;7.80;;
26319;SDS011;14024;52.226;5.200;2023-05-14T12:34:11;17.60;;;7.80;;
26319;SDS011;14024;52.226;5.200;2023-05-14T12:36:37;15.07;;;8.00;;
26319;SDS011;14024;52.226;5.200;2023-05-14T12:39:03;14.90;;;8.35;;
26319;SDS011;14024;52.226;5.200;2023-05-14T12:41:30;12.68;;;7.53;;
26319;SDS011;14024;52.226;5.200;2023-05-14T12:43:56;15.60;;;8.02;;
26319;SDS011;14024;52.226;5.200;2023-05-14T12:46:22;16.77;;;8.45;;
26319;SDS011;14024;52.226;5.200;2023-05-14T12:48:48;14.52;;;7.30;;
26319;SDS011;14024;52.226;5.200;2023-05-14T12:51:14;15.95;;;8.43;;
26319;SDS011;14024;52.226;5.200;2023-05-14T12:53:40;14.23;;;7.07;;
26319;SDS011;14024;52.226;5.200;2023-05-14T12:56:06;11.07;;;7.53;;
26319;SDS011;14024;52.226;5.200;2023-05-14T12:58:32;19.00;;;8.00;;
26319;SDS011;14024;52.226;5.200;2023-05-14T13:00:58;14.75;;;7.97;;
26319;SDS011;14024;52.226;5.200;2023-05-14T13:03:24;15.82;;;8.30;;
26319;SDS011;14024;52.226;5.200;2023-05-14T13:05:51;13.43;;;8.80;;
26319;SDS011;14024;52.226;5.200;2023-05-14T13:08:18;19.15;;;8.05;;
26319;SDS011;14024;52.226;5.200;2023-05-14T13:10:45;15.73;;;7.80;;
26319;SDS011;14024;52.226;5.200;2023-05-14T13:13:13;17.67;;;9.02;;
26319;SDS011;14024;52.226;5.200;2023-05-14T13:15:39;17.38;;;8.52;;
26319;SDS011;14024;52.226;5.200;2023-05-14T13:18:05;17.33;;;7.43;;
26319;SDS011;14024;52.226;5.200;2023-05-14T13:20:32;17.77;;;7.97;;
26319;SDS011;14024;52.226;5.200;2023-05-14T13:22:58;15.43;;;8.45;;
26319;SDS011;14024;52.226;5.200;2023-05-14T13:25:24;14.07;;;7.75;;
26319;SDS011;14024;52.226;5.200;2023-05-14T13:27:51;13.90;;;7.43;;
26319;SDS011;14024;52.226;5.200;2023-05-14T13:30:17;13.88;;;7.43;;
26319;SDS011;14024;52.226;5.200;2023-05-14T13:32:43;18.58;;;8.60;;
26319;SDS011;14024;52.226;5.200;2023-05-14T13:35:10;16.33;;;7.70;;
26319;SDS011;14024;52.226;5.200;2023-05-14T13:37:36;13.68;;;7.35;;
26319;SDS011;14024;52.226;5.200;2023-05-14T13:40:04;18.33;;;7.50;;
26319;SDS011;14024;52.226;5.200;2023-05-14T13:42:34;11.32;;;7.38;;
26319;SDS011;14024;52.226;5.200;2023-05-14T13:45:00;13.85;;;7.15;;
26319;SDS011;14024;52.226;5.200;2023-05-14T13:47:26;16.92;;;7.20;;
26319;SDS011;14024;52.226;5.200;2023-05-14T13:49:54;12.70;;;6.82;;
26319;SDS011;14024;52.226;5.200;2023-05-14T13:52:20;11.63;;;7.18;;
26319;SDS011;14024;52.226;5.200;2023-05-14T13:54:47;16.50;;;8.23;;
26319;SDS011;14024;52.226;5.200;2023-05-14T13:57:13;17.27;;;7.88;;
26319;SDS011;14024;52.226;5.200;2023-05-14T13:59:39;10.82;;;7.22;;
26319;SDS011;14024;52.226;5.200;2023-05-14T14:02:05;15.93;;;7.47;;
26319;SDS011;14024;52.226;5.200;2023-05-14T14:04:31;17.50;;;7.10;;
26319;SDS011;14024;52.226;5.200;2023-05-14T14:06:57;15.52;;;7.65;;
26319;SDS011;14024;52.226;5.200;2023-05-14T14:09:24;19.60;;;8.40;;
26319;SDS011;14024;52.226;5.200;2023-05-14T14:11:50;17.45;;;7.78;;
26319;SDS011;14024;52.226;5.200;2023-05-14T14:14:16;12.57;;;7.18;;
26319;SDS011;14024;52.226;5.200;2023-05-14T14:16:43;16.10;;;8.43;;
26319;SDS011;14024;52.226;5.200;2023-05-14T14:19:10;11.38;;;7.57;;
26319;SDS011;14024;52.226;5.200;2023-05-14T14:21:36;18.83;;;8.57;;
26319;SDS011;14024;52.226;5.200;2023-05-14T14:24:03;15.75;;;8.05;;
26319;SDS011;14024;52.226;5.200;2023-05-14T14:26:30;11.77;;;6.60;;
26319;SDS011;14024;52.226;5.200;2023-05-14T14:28:56;13.75;;;7.75;;